createdAt,value
2019-03-19T00:00:40.725Z,21.69
2019-03-19T00:03:08.896Z,21.58
2019-03-19T00:05:37.084Z,21.71
2019-03-19T00:08:05.297Z,21.71
2019-03-19T00:10:33.441Z,21.70
2019-03-19T00:13:01.624Z,21.67
2019-03-19T00:15:29.793Z,21.67
2019-03-19T00:17:57.999Z,21.66
2019-03-19T00:20:26.197Z,21.66
2019-03-19T00:22:54.429Z,21.65
2019-03-19T00:25:29.844Z,21.63
2019-03-19T00:27:52.521Z,21.65
2019-03-19T00:30:20.682Z,21.63
2019-03-19T00:32:48.967Z,21.62
2019-03-19T00:35:17.149Z,21.68
2019-03-19T00:37:45.402Z,21.73
2019-03-19T00:40:13.600Z,21.71
2019-03-19T00:42:41.821Z,21.69
2019-03-19T00:45:10.053Z,21.71
2019-03-19T00:47:38.210Z,21.69
2019-03-19T00:50:06.705Z,21.70
2019-03-19T00:52:34.932Z,21.68
2019-03-19T00:55:03.120Z,21.69
2019-03-19T00:57:31.364Z,21.68
2019-03-19T00:59:59.548Z,21.69
2019-03-19T01:02:27.736Z,21.71
2019-03-19T01:04:55.913Z,21.67
2019-03-19T01:07:24.092Z,21.68
2019-03-19T01:09:52.311Z,21.67
2019-03-19T01:12:20.518Z,21.62
2019-03-19T01:14:48.689Z,21.51
2019-03-19T01:17:16.863Z,21.61
2019-03-19T01:19:45.069Z,21.62
2019-03-19T01:22:13.251Z,21.59
2019-03-19T01:24:41.416Z,21.59
2019-03-19T01:27:09.589Z,21.58
2019-03-19T01:29:37.732Z,21.56
2019-03-19T01:32:05.892Z,21.55
2019-03-19T01:34:34.108Z,21.59
2019-03-19T01:37:02.267Z,21.58
2019-03-19T01:39:30.397Z,21.57
2019-03-19T01:41:58.578Z,21.54
2019-03-19T01:44:26.776Z,21.53
2019-03-19T01:46:54.954Z,21.55
2019-03-19T01:49:23.137Z,21.52
2019-03-19T01:51:51.330Z,21.52
2019-03-19T01:54:19.612Z,21.53
2019-03-19T01:56:47.800Z,21.53
2019-03-19T01:59:15.986Z,21.49
2019-03-19T02:01:44.191Z,21.49
2019-03-19T02:04:12.400Z,21.51
2019-03-19T02:06:40.556Z,21.52
2019-03-19T02:09:09.986Z,21.51
2019-03-19T02:11:38.524Z,21.50
2019-03-19T02:14:06.884Z,21.48
2019-03-19T02:16:35.061Z,21.47
2019-03-19T02:19:03.262Z,21.46
2019-03-19T02:21:31.473Z,21.48
2019-03-19T02:23:59.688Z,21.49
2019-03-19T02:26:27.900Z,21.47
2019-03-19T02:28:56.135Z,21.44
2019-03-19T02:31:24.341Z,21.45
2019-03-19T02:33:52.561Z,21.44
2019-03-19T02:36:20.750Z,21.43
2019-03-19T02:38:48.989Z,21.44
2019-03-19T02:41:17.176Z,21.42
2019-03-19T02:43:45.355Z,21.42
2019-03-19T02:46:13.538Z,21.41
2019-03-19T02:48:41.714Z,21.40
2019-03-19T02:51:10.022Z,21.38
2019-03-19T02:53:38.204Z,21.40
2019-03-19T02:56:06.371Z,21.39
2019-03-19T02:58:34.592Z,21.38
2019-03-19T03:01:02.768Z,21.36
2019-03-19T03:03:31.014Z,21.37
2019-03-19T03:05:59.252Z,21.36
2019-03-19T03:08:27.382Z,21.37
2019-03-19T03:10:55.576Z,21.38
2019-03-19T03:13:23.760Z,21.38
2019-03-19T03:15:51.951Z,21.37
2019-03-19T03:18:20.152Z,21.36
2019-03-19T03:20:49.398Z,21.37
2019-03-19T03:23:17.594Z,21.40
2019-03-19T03:25:45.788Z,21.36
2019-03-19T03:28:13.980Z,21.33
2019-03-19T03:30:42.210Z,21.34
2019-03-19T03:33:10.409Z,21.32
2019-03-19T03:35:38.583Z,21.31
2019-03-19T03:38:06.775Z,21.31
2019-03-19T03:40:35.012Z,21.31
2019-03-19T03:43:03.173Z,21.30
2019-03-19T03:45:31.340Z,21.31
2019-03-19T03:47:59.586Z,21.30
2019-03-19T03:50:27.723Z,21.27
2019-03-19T03:52:55.929Z,21.28
2019-03-19T03:55:24.107Z,21.28
2019-03-19T03:57:52.271Z,21.28
2019-03-19T04:00:20.445Z,21.28
2019-03-19T04:02:48.627Z,21.28
2019-03-19T04:05:16.761Z,21.27
2019-03-19T04:07:44.939Z,21.27
2019-03-19T04:10:13.155Z,21.25
2019-03-19T04:12:41.336Z,21.25
2019-03-19T04:15:09.957Z,21.25
2019-03-19T04:17:38.100Z,21.23
2019-03-19T04:20:06.473Z,21.22
2019-03-19T04:22:34.681Z,21.23
2019-03-19T04:25:03.296Z,21.23
2019-03-19T04:27:31.470Z,21.20
2019-03-19T04:29:59.665Z,21.21
2019-03-19T04:32:27.853Z,21.21
2019-03-19T04:34:56.093Z,21.21
2019-03-19T04:37:24.336Z,21.20
2019-03-19T04:39:52.593Z,21.21
2019-03-19T04:42:20.773Z,21.21
2019-03-19T04:44:48.981Z,21.19
2019-03-19T04:47:17.133Z,21.19
2019-03-19T04:49:45.328Z,21.21
2019-03-19T04:52:13.513Z,21.18
2019-03-19T04:54:41.699Z,21.20
2019-03-19T04:57:09.997Z,21.20
2019-03-19T04:59:38.190Z,21.19
2019-03-19T05:02:06.377Z,21.19
2019-03-19T05:04:34.550Z,21.19
2019-03-19T05:07:02.769Z,21.18
2019-03-19T05:09:30.934Z,21.15
2019-03-19T05:11:59.199Z,21.16
2019-03-19T05:14:27.404Z,21.16
2019-03-19T05:16:55.566Z,21.17
2019-03-19T05:19:23.885Z,21.18
2019-03-19T05:21:52.064Z,21.15
2019-03-19T05:24:20.239Z,21.16
2019-03-19T05:26:48.431Z,21.17
2019-03-19T05:29:16.659Z,21.17
2019-03-19T05:31:44.832Z,21.16
2019-03-19T05:34:12.988Z,21.19
2019-03-19T05:36:41.230Z,21.19
2019-03-19T05:39:09.472Z,21.19
2019-03-19T05:41:37.686Z,21.19
2019-03-19T05:44:05.855Z,21.18
2019-03-19T05:46:34.155Z,21.14
2019-03-19T05:49:02.336Z,21.12
2019-03-19T05:51:30.517Z,21.14
2019-03-19T05:53:58.712Z,21.13
2019-03-19T05:56:26.904Z,21.13
2019-03-19T05:58:55.105Z,21.10
2019-03-19T06:01:23.302Z,21.11
2019-03-19T06:03:51.484Z,21.15
2019-03-19T06:06:19.651Z,21.12
2019-03-19T06:08:47.820Z,21.11
2019-03-19T06:11:16.121Z,21.13
2019-03-19T06:13:44.317Z,21.15
2019-03-19T06:16:12.597Z,21.13
2019-03-19T06:18:40.851Z,21.14
2019-03-19T06:21:09.045Z,21.14
2019-03-19T06:23:37.277Z,21.12
2019-03-19T06:26:05.480Z,21.12
2019-03-19T06:28:35.575Z,21.12
2019-03-19T06:31:03.565Z,21.12
2019-03-19T06:33:31.756Z,21.12
2019-03-19T06:35:59.930Z,21.14
2019-03-19T06:38:28.101Z,21.11
2019-03-19T06:40:56.408Z,21.11
2019-03-19T06:43:24.577Z,21.10
2019-03-19T06:45:52.745Z,21.12
2019-03-19T06:48:20.980Z,21.14
2019-03-19T06:50:49.186Z,21.16
2019-03-19T06:53:17.363Z,21.15
2019-03-19T06:55:45.602Z,21.15
2019-03-19T06:58:13.887Z,21.17
2019-03-19T07:00:42.114Z,21.19
2019-03-19T07:03:10.332Z,21.22
2019-03-19T07:05:38.592Z,21.27
2019-03-19T07:08:06.762Z,21.24
2019-03-19T07:10:35.012Z,21.24
2019-03-19T07:13:04.375Z,21.26
2019-03-19T07:15:32.566Z,21.25
2019-03-19T07:18:00.785Z,21.27
2019-03-19T07:20:28.919Z,21.24
2019-03-19T07:22:57.061Z,21.31
2019-03-19T07:25:25.267Z,21.36
2019-03-19T07:27:53.459Z,21.33
2019-03-19T07:30:21.584Z,21.30
2019-03-19T07:32:49.749Z,21.28
2019-03-19T07:35:17.881Z,21.32
2019-03-19T07:37:46.028Z,21.32
2019-03-19T07:40:14.179Z,21.33
2019-03-19T07:42:42.329Z,21.32
2019-03-19T07:45:11.621Z,21.35
2019-03-19T07:47:39.768Z,21.35
2019-03-19T07:50:08.581Z,21.34
2019-03-19T07:52:36.741Z,21.34
2019-03-19T07:55:04.955Z,21.39
2019-03-19T07:57:33.038Z,21.32
2019-03-19T08:00:01.177Z,21.35
2019-03-19T08:02:29.445Z,21.37
2019-03-19T08:04:57.583Z,21.43
2019-03-19T08:07:25.704Z,21.42
2019-03-19T08:09:53.870Z,21.37
2019-03-19T08:12:22.004Z,21.39
2019-03-19T08:14:50.177Z,21.43
2019-03-19T08:17:18.323Z,21.45
2019-03-19T08:19:46.485Z,21.43
2019-03-19T08:22:14.612Z,21.43
2019-03-19T08:24:42.821Z,21.45
2019-03-19T08:27:10.981Z,21.46
2019-03-19T08:29:39.099Z,21.45
2019-03-19T08:32:07.277Z,21.43
2019-03-19T08:34:36.387Z,21.42
2019-03-19T08:37:04.560Z,21.42
2019-03-19T08:39:32.744Z,21.49
2019-03-19T08:42:00.881Z,21.50
2019-03-19T08:44:29.031Z,21.49
2019-03-19T08:46:57.172Z,21.49
2019-03-19T08:49:25.299Z,21.51
2019-03-19T08:51:53.521Z,21.52
2019-03-19T08:54:21.647Z,21.50
2019-03-19T08:56:49.871Z,21.54
2019-03-19T08:59:17.987Z,21.54
2019-03-19T09:01:47.404Z,21.55
2019-03-19T09:04:15.771Z,21.59
2019-03-19T09:06:43.965Z,21.58
2019-03-19T09:09:12.096Z,21.61
2019-03-19T09:11:40.234Z,21.61
2019-03-19T09:14:08.376Z,21.65
2019-03-19T09:16:36.510Z,21.66
2019-03-19T09:19:04.668Z,21.67
2019-03-19T09:21:32.835Z,21.68
2019-03-19T09:24:00.993Z,21.73
2019-03-19T09:26:29.127Z,21.71
2019-03-19T09:28:57.292Z,21.74
2019-03-19T09:31:25.427Z,21.74
2019-03-19T09:33:53.629Z,21.77
2019-03-19T09:36:21.804Z,21.78
2019-03-19T09:38:50.060Z,21.76
2019-03-19T09:41:18.227Z,21.83
2019-03-19T09:43:46.409Z,21.81
2019-03-19T09:46:14.703Z,21.77
2019-03-19T09:48:42.929Z,21.75
2019-03-19T09:51:11.132Z,21.76
2019-03-19T09:53:39.401Z,21.78
2019-03-19T09:56:07.655Z,21.75
2019-03-19T09:58:35.858Z,21.81
2019-03-19T10:01:04.082Z,21.83
2019-03-19T10:03:32.381Z,21.84
2019-03-19T10:06:12.545Z,21.88
2019-03-19T10:08:30.412Z,21.88
2019-03-19T10:10:58.740Z,21.93
2019-03-19T10:13:26.941Z,21.89
2019-03-19T10:15:55.113Z,21.91
2019-03-19T10:18:23.282Z,21.90
2019-03-19T10:20:51.523Z,21.87
2019-03-19T10:23:19.852Z,21.90
2019-03-19T10:25:48.027Z,21.97
2019-03-19T10:28:16.244Z,21.98
2019-03-19T10:30:44.639Z,22.04
2019-03-19T10:33:12.907Z,22.04
2019-03-19T10:35:41.056Z,22.02
2019-03-19T10:38:09.228Z,22.03
2019-03-19T10:40:37.407Z,21.96
2019-03-19T10:43:05.577Z,21.88
2019-03-19T10:45:33.832Z,21.85
2019-03-19T10:48:02.048Z,21.82
2019-03-19T10:50:30.231Z,21.82
2019-03-19T10:52:58.422Z,21.80
2019-03-19T10:55:26.580Z,21.82
2019-03-19T10:57:54.755Z,21.80
2019-03-19T11:00:22.895Z,21.79
2019-03-19T11:02:51.066Z,21.77
2019-03-19T11:05:19.273Z,21.75
2019-03-19T11:07:47.494Z,21.76
2019-03-19T11:10:15.748Z,21.74
2019-03-19T11:12:43.937Z,21.76
2019-03-19T11:15:13.187Z,21.76
2019-03-19T11:17:41.474Z,21.72
2019-03-19T11:20:10.370Z,21.75
2019-03-19T11:22:38.583Z,21.77
2019-03-19T11:25:07.859Z,21.75
2019-03-19T11:27:36.114Z,21.75
2019-03-19T11:30:06.592Z,21.74
2019-03-19T11:32:35.112Z,21.76
2019-03-19T11:35:03.293Z,21.75
2019-03-19T11:37:31.460Z,21.72
2019-03-19T11:39:59.686Z,21.74
2019-03-19T11:42:27.935Z,21.73
2019-03-19T11:44:56.084Z,21.70
2019-03-19T11:47:24.285Z,21.72
2019-03-19T11:49:52.438Z,21.73
2019-03-19T11:52:20.612Z,21.77
2019-03-19T11:54:48.808Z,21.78
2019-03-19T11:57:16.996Z,21.81
2019-03-19T11:59:45.257Z,21.84
2019-03-19T12:02:13.495Z,21.85
2019-03-19T12:04:41.694Z,21.89
2019-03-19T12:07:09.865Z,21.81
2019-03-19T12:09:40.069Z,21.79
2019-03-19T12:12:07.925Z,21.77
2019-03-19T12:14:36.107Z,21.76
2019-03-19T12:17:04.311Z,21.78
2019-03-19T12:19:32.806Z,21.75
2019-03-19T12:22:00.925Z,21.75
2019-03-19T12:24:29.083Z,21.75
2019-03-19T12:26:57.241Z,21.75
2019-03-19T12:29:25.376Z,21.76
2019-03-19T12:31:53.518Z,21.76
2019-03-19T12:34:21.664Z,21.76
2019-03-19T12:36:50.000Z,21.78
2019-03-19T12:39:18.265Z,21.80
2019-03-19T12:41:48.440Z,21.79
2019-03-19T12:44:16.357Z,21.82
2019-03-19T12:46:44.489Z,21.83
2019-03-19T12:49:12.746Z,21.85
2019-03-19T12:51:40.883Z,21.87
2019-03-19T12:54:09.009Z,21.90
2019-03-19T12:56:37.173Z,21.89
2019-03-19T12:59:05.330Z,21.88
2019-03-19T13:01:33.543Z,21.87
2019-03-19T13:04:01.802Z,21.88
2019-03-19T13:06:29.942Z,21.84
2019-03-19T13:08:58.077Z,21.87
2019-03-19T13:11:26.224Z,21.89
2019-03-19T13:13:54.356Z,21.86
2019-03-19T13:16:22.506Z,21.88
2019-03-19T13:18:50.643Z,21.89
2019-03-19T13:21:18.789Z,21.87
2019-03-19T13:23:46.933Z,21.93
2019-03-19T13:26:15.073Z,21.95
2019-03-19T13:28:43.466Z,21.90
2019-03-19T13:31:11.587Z,21.92
2019-03-19T13:33:39.721Z,21.94
2019-03-19T13:36:07.875Z,21.98
2019-03-19T13:38:36.197Z,22.00
2019-03-19T13:41:04.338Z,22.02
2019-03-19T13:43:32.476Z,22.02
2019-03-19T13:46:00.604Z,22.03
2019-03-19T13:48:28.750Z,21.98
2019-03-19T13:50:56.905Z,22.07
2019-03-19T13:53:25.078Z,22.04
2019-03-19T13:55:53.195Z,22.07
2019-03-19T13:58:21.405Z,22.04
2019-03-19T14:00:55.494Z,22.05
2019-03-19T14:03:19.325Z,22.09
2019-03-19T14:05:47.447Z,22.11
2019-03-19T14:08:17.872Z,22.12
2019-03-19T14:10:45.463Z,22.10
2019-03-19T14:13:13.602Z,22.11
2019-03-19T14:15:41.731Z,22.17
2019-03-19T14:18:09.965Z,22.16
2019-03-19T14:20:38.129Z,22.15
2019-03-19T14:23:06.270Z,22.17
2019-03-19T14:25:34.416Z,22.15
2019-03-19T14:28:02.629Z,22.15
2019-03-19T14:30:30.755Z,22.17
2019-03-19T14:32:58.901Z,22.16
2019-03-19T14:35:36.949Z,22.16
2019-03-19T14:37:56.961Z,22.19
2019-03-19T14:40:25.110Z,22.19
2019-03-19T14:42:53.326Z,22.17
2019-03-19T14:45:21.486Z,22.20
2019-03-19T14:47:49.633Z,22.17
2019-03-19T14:50:17.782Z,22.17
2019-03-19T14:52:46.016Z,22.14
2019-03-19T14:55:14.304Z,22.16
2019-03-19T14:57:42.436Z,22.11
2019-03-19T15:00:11.478Z,22.14
2019-03-19T15:02:39.636Z,22.14
2019-03-19T15:05:07.980Z,22.13
2019-03-19T15:07:36.115Z,22.12
2019-03-19T15:10:04.470Z,22.19
2019-03-19T15:12:32.609Z,22.23
2019-03-19T15:15:00.739Z,22.24
2019-03-19T15:17:28.982Z,22.28
2019-03-19T15:19:57.145Z,22.29
2019-03-19T15:22:32.506Z,22.25
2019-03-19T15:24:55.115Z,22.27
2019-03-19T15:27:23.249Z,22.26
2019-03-19T15:29:51.607Z,22.26
2019-03-19T15:32:19.741Z,22.29
2019-03-19T15:34:47.871Z,22.25
2019-03-19T15:37:16.021Z,22.20
2019-03-19T15:39:44.144Z,22.16
2019-03-19T15:42:12.280Z,22.15
2019-03-19T15:44:40.422Z,22.16
2019-03-19T15:47:08.583Z,22.15
2019-03-19T15:49:38.426Z,22.18
2019-03-19T15:52:06.620Z,22.21
2019-03-19T15:54:34.770Z,22.18
2019-03-19T15:57:02.910Z,22.21
2019-03-19T15:59:31.094Z,22.23
2019-03-19T16:01:59.296Z,22.21
2019-03-19T16:04:27.438Z,22.18
2019-03-19T16:06:55.641Z,22.17
2019-03-19T16:09:23.841Z,22.19
2019-03-19T16:11:52.084Z,22.18
2019-03-19T16:14:20.224Z,22.20
2019-03-19T16:16:48.358Z,22.25
2019-03-19T16:19:16.569Z,22.26
2019-03-19T16:21:44.735Z,22.26
2019-03-19T16:24:12.872Z,22.23
2019-03-19T16:26:41.005Z,22.23
2019-03-19T16:29:09.156Z,22.19
2019-03-19T16:31:37.379Z,22.20
2019-03-19T16:34:05.525Z,22.21
2019-03-19T16:36:33.697Z,22.17
2019-03-19T16:39:01.907Z,22.19
2019-03-19T16:41:30.040Z,22.16
2019-03-19T16:43:58.353Z,22.14
2019-03-19T16:46:26.514Z,22.15
2019-03-19T16:48:54.637Z,22.15
2019-03-19T16:51:22.798Z,22.16
2019-03-19T16:53:50.968Z,22.14
2019-03-19T16:56:19.141Z,22.10
2019-03-19T16:58:47.281Z,22.11
2019-03-19T17:01:15.499Z,22.08
2019-03-19T17:03:43.639Z,22.07
2019-03-19T17:06:14.806Z,22.03
2019-03-19T17:08:42.956Z,22.03
2019-03-19T17:11:11.177Z,22.06
2019-03-19T17:13:39.516Z,22.06
2019-03-19T17:16:07.723Z,22.02
2019-03-19T17:18:35.862Z,22.01
2019-03-19T17:21:04.032Z,22.02
2019-03-19T17:23:32.219Z,22.01
2019-03-19T17:26:00.340Z,22.01
2019-03-19T17:28:28.565Z,21.98
2019-03-19T17:30:56.744Z,21.98
2019-03-19T17:33:24.832Z,21.97
2019-03-19T17:35:52.979Z,21.95
2019-03-19T17:38:21.117Z,21.94
2019-03-19T17:40:49.294Z,21.97
2019-03-19T17:43:17.440Z,21.98
2019-03-19T17:45:45.575Z,21.71
2019-03-19T17:48:16.455Z,21.43
2019-03-19T17:50:43.570Z,21.27
2019-03-19T17:53:11.778Z,21.20
2019-03-19T17:55:39.917Z,21.10
2019-03-19T17:58:08.058Z,21.29
2019-03-19T18:00:36.917Z,21.45
2019-03-19T18:03:05.069Z,21.55
2019-03-19T18:05:33.239Z,21.38
2019-03-19T18:08:01.409Z,21.05
2019-03-19T18:10:29.551Z,21.29
2019-03-19T18:12:57.761Z,21.42
2019-03-19T18:15:25.893Z,20.98
2019-03-19T18:17:54.042Z,20.54
2019-03-19T18:20:22.176Z,20.26
2019-03-19T18:22:50.360Z,20.50
2019-03-19T18:25:18.514Z,20.92
2019-03-19T18:27:46.669Z,21.10
2019-03-19T18:30:15.119Z,21.20
2019-03-19T18:32:43.259Z,21.25
2019-03-19T18:35:11.401Z,21.32
2019-03-19T18:37:39.569Z,21.36
2019-03-19T18:40:08.131Z,21.36
2019-03-19T18:42:36.267Z,21.38
2019-03-19T18:45:04.856Z,21.44
2019-03-19T18:47:33.011Z,21.46
2019-03-19T18:50:01.145Z,21.46
2019-03-19T18:52:29.283Z,21.48
2019-03-19T18:54:57.433Z,21.48
2019-03-19T18:57:25.655Z,21.50
2019-03-19T18:59:53.808Z,21.51
2019-03-19T19:02:21.973Z,21.51
2019-03-19T19:04:50.158Z,21.51
2019-03-19T19:07:18.308Z,21.53
2019-03-19T19:09:46.512Z,21.53
2019-03-19T19:12:14.767Z,21.53
2019-03-19T19:14:42.928Z,21.54
2019-03-19T19:17:13.134Z,21.54
2019-03-19T19:19:40.901Z,21.55
2019-03-19T19:22:09.096Z,21.54
2019-03-19T19:24:37.296Z,21.55
2019-03-19T19:27:05.429Z,21.55
2019-03-19T19:29:33.629Z,21.55
2019-03-19T19:32:01.802Z,21.55
2019-03-19T19:34:29.941Z,21.56
2019-03-19T19:36:58.084Z,21.54
2019-03-19T19:39:26.224Z,21.53
2019-03-19T19:41:54.362Z,21.54
2019-03-19T19:44:22.495Z,21.54
2019-03-19T19:46:50.756Z,21.56
2019-03-19T19:49:20.598Z,21.54
2019-03-19T19:51:48.821Z,21.54
2019-03-19T19:54:16.970Z,21.56
2019-03-19T19:56:45.105Z,21.56
2019-03-19T19:59:13.267Z,21.56
2019-03-19T20:01:41.433Z,21.58
2019-03-19T20:04:09.654Z,21.55
2019-03-19T20:06:37.853Z,21.54
2019-03-19T20:09:07.285Z,21.55
2019-03-19T20:11:35.601Z,21.54
2019-03-19T20:14:03.743Z,21.55
2019-03-19T20:16:31.909Z,21.55
2019-03-19T20:19:00.058Z,21.52
2019-03-19T20:21:28.240Z,21.50
2019-03-19T20:23:56.389Z,21.51
2019-03-19T20:26:24.540Z,21.50
2019-03-19T20:28:52.683Z,21.50
2019-03-19T20:31:20.824Z,21.50
2019-03-19T20:33:49.033Z,21.51
2019-03-19T20:36:17.182Z,21.51
2019-03-19T20:38:45.360Z,21.52
2019-03-19T20:41:13.495Z,21.50
2019-03-19T20:43:41.623Z,21.50
2019-03-19T20:46:09.786Z,21.51
2019-03-19T20:48:37.912Z,21.51
2019-03-19T20:51:06.336Z,21.53
2019-03-19T20:53:34.493Z,21.52
2019-03-19T20:56:02.695Z,21.50
2019-03-19T20:58:30.845Z,21.50
2019-03-19T21:00:59.031Z,21.52
2019-03-19T21:03:35.561Z,21.48
2019-03-19T21:05:57.092Z,21.49
2019-03-19T21:08:25.282Z,21.45
2019-03-19T21:10:53.474Z,21.44
2019-03-19T21:13:21.670Z,21.43
2019-03-19T21:15:49.918Z,21.41
2019-03-19T21:18:18.146Z,21.39
2019-03-19T21:20:46.371Z,21.40
2019-03-19T21:23:14.593Z,21.41
2019-03-19T21:25:42.815Z,21.37
2019-03-19T21:28:14.332Z,21.35
2019-03-19T21:30:40.838Z,21.33
2019-03-19T21:33:09.055Z,21.33
2019-03-19T21:35:37.270Z,21.34
2019-03-19T21:38:05.450Z,21.35
2019-03-19T21:40:33.631Z,21.33
2019-03-19T21:43:02.059Z,21.32
2019-03-19T21:45:30.902Z,21.31
2019-03-19T21:47:59.096Z,21.30
2019-03-19T21:50:27.295Z,21.29
2019-03-19T21:52:55.511Z,21.28
2019-03-19T21:55:23.775Z,21.28
2019-03-19T21:57:52.010Z,21.28
2019-03-19T22:00:20.305Z,21.26
2019-03-19T22:02:48.496Z,21.26
2019-03-19T22:05:16.772Z,21.25
2019-03-19T22:07:44.936Z,21.24
2019-03-19T22:10:13.579Z,21.23
2019-03-19T22:12:41.801Z,21.21
2019-03-19T22:15:13.560Z,21.21
2019-03-19T22:17:41.724Z,21.21
2019-03-19T22:20:09.951Z,21.21
2019-03-19T22:22:38.143Z,21.22
2019-03-19T22:25:06.453Z,21.24
2019-03-19T22:27:34.640Z,21.23
2019-03-19T22:30:02.892Z,21.23
2019-03-19T22:32:31.088Z,21.21
2019-03-19T22:34:59.303Z,21.19
2019-03-19T22:37:27.604Z,21.19
2019-03-19T22:39:55.809Z,21.17
2019-03-19T22:42:24.050Z,21.16
2019-03-19T22:44:52.255Z,21.16
2019-03-19T22:47:20.479Z,21.15
2019-03-19T22:49:48.770Z,21.15
2019-03-19T22:52:17.072Z,21.12
2019-03-19T22:54:45.272Z,21.11
2019-03-19T22:57:13.561Z,21.12
2019-03-19T22:59:41.805Z,21.11
2019-03-19T23:02:10.049Z,21.09
2019-03-19T23:04:38.365Z,21.10
2019-03-19T23:07:06.595Z,21.11
2019-03-19T23:09:34.865Z,21.11
2019-03-19T23:12:03.099Z,21.10
2019-03-19T23:14:31.342Z,21.10
2019-03-19T23:16:59.631Z,21.07
2019-03-19T23:19:27.848Z,21.06
2019-03-19T23:21:56.037Z,21.06
2019-03-19T23:24:24.308Z,21.05
2019-03-19T23:26:52.551Z,21.04
2019-03-19T23:29:20.824Z,21.04
2019-03-19T23:31:49.015Z,21.04
2019-03-19T23:34:17.374Z,21.02
2019-03-19T23:36:45.592Z,21.03
2019-03-19T23:39:13.779Z,21.02
2019-03-19T23:41:41.968Z,21.02
2019-03-19T23:44:10.198Z,21.01
2019-03-19T23:46:38.435Z,21.00
2019-03-19T23:49:06.682Z,20.99
2019-03-19T23:51:34.917Z,21.00
2019-03-19T23:54:03.155Z,20.98
2019-03-19T23:56:31.396Z,20.98
2019-03-19T23:58:59.617Z,20.98
